Bookmark and Share
Track history (hours):
 

Red Diamond

Last reported at 2014-Apr-14 16:33 UTC. Time now 2014-Apr-25 06:05 UTC.
Position N 39°47' W 029°35'.
Warning: this ship's position is 10 days out of date.

Length 190 m; draft 10 m.

Type: Cargo ship. MMSI: 636014524.

NotesDate/timePositionNaut miles runAvg speedWind from/ knotsBaromVisibWave heightAir tempDewpointWater temp
2014-Apr-14 16:33N 39°47' W 029°35'10 9.6
2014-Apr-14 15:34N 39°46' W 029°23'10 9.7
2014-Apr-14 14:33N 39°44' W 029°10'10 9.9
2014-Apr-14 13:33N 39°43' W 028°58'3 1.6
2014-Apr-14 11:33N 39°42' W 028°54'7 7.3
2014-Apr-14 10:34N 39°41' W 028°44'1010.1
2014-Apr-14 09:34N 39°40' W 028°31'2010.2
2014-Apr-14 07:33N 39°37' W 028°05'10 9.8
2014-Apr-14 06:30N 39°35' W 027°52'9 9.9
2014-Apr-14 05:33N 39°34' W 027°40'  
2014-Apr-10 13:09N 36°15' W 009°15'2610.1
2014-Apr-10 10:33N 36°12' W 008°43'15410.3
2014-Apr-09 19:33N 35°59' W 005°33'9 9.2
2014-Apr-09 18:33N 36°03' W 005°23'5 4.6
2014-Apr-09 17:31N 36°08' W 005°22'0 0.1
2014-Apr-09 16:31N 36°08' W 005°22'0 0.1
2014-Apr-09 15:31N 36°08' W 005°22'0 0.0
2014-Apr-09 14:31N 36°08' W 005°22'0 0.1
2014-Apr-09 13:31N 36°08' W 005°22'0 0.1
2014-Apr-09 12:28N 36°08' W 005°22'0 0.1
2014-Apr-09 11:31N 36°08' W 005°22'0 0.1
2014-Apr-09 10:31N 36°08' W 005°22'0 0.1
2014-Apr-09 09:31N 36°08' W 005°22'0 0.0
2014-Apr-09 08:31N 36°08' W 005°22'0 0.0
2014-Apr-09 07:33N 36°08' W 005°22'0 0.1
2014-Apr-09 06:33N 36°08' W 005°22'2 1.7
2014-Apr-09 05:33N 36°06' W 005°22'4 4.4
2014-Apr-09 04:33N 36°06' W 005°17'5 5.3
2014-Apr-09 03:33N 36°05' W 005°10'9 9.3
2014-Apr-09 02:32N 36°06' W 004°59'  
2014-Apr-05 14:28N 37°06' E 012°00'18 7.4
2014-Apr-05 12:05N 36°55' E 012°17'6 7.1
2014-Apr-05 11:11N 36°50' E 012°23'4 6.9
2014-Apr-05 10:32N 36°48' E 012°27'  

Dump ship's entire track history

sailing weather and tide predictions

Red Diamond — A8UM9 — position and weather